Terminal Aerodrome Forecast
Issued by NWS

Home | Current Version | Previous Version | Text Only | Print | Product List | Glossary On
Versions: 1 2 3 4 5 6 7 8 9 10 11 12 13 14 15
000
FTUS44 KEWX 271700
TAFSSF
TAF
KSSF 271720Z 2718/2818 05007KT P6SM FEW060 SCT250
     FM280000 09008KT P6SM SCT070 SCT250
      TEMPO 2809/2813 P6SM FEW015=

USA.gov is the U.S. government's official web portal to all federal, state and local government web resources and services.